Logo AVAMET
Benvolgut visitant, si us plau, ingressa Recuperar contrasenya
AVAMET paisatges

Sella poble

Dades diàries. Acumulats / Últims 30 dies disponibles

Data Temperatura (°C) Humitat rel. (%) Pressió rel. (hPa) Vent (km/h) Precipitació
Mínima Mitjana Màxima Amplitud
tèrmica
Mínima Mitjana Màxima Mínima Mitjana Màxima Predom. Mitjana Ràfega
màxima
Total
(mm)
Índex-n
Mínima Mitjana Màxima Mínima Mitjana Màxima n
0 a 1
P0 max
mm 5'
Dades mensuals acumulades fins l'últim dia disponible
10/2020 10,6 13,1 18,1 17,4 18,0 22,1 29,1 18,5 23 54 95 993 1.015 1.024   8,4 74,0 2,1
Dades anuals acumulades fins l'últim dia disponible
2020 4,2 15,1 25,8 18,8 11,1 23,0 36,0 31,8 4 61 98 993 1.017 1.032   8,0 74,0 416,1
Últims 30 dies disponibles
19-10-2020 11,5     15,7     21,2 9,7 52 66 82 1.018 1.019 1.021 OSO 9,7 22,0 0,0
18-10-2020 12,3     16,1     20,8 8,5 38 59 89 1.016 1.018 1.021 NW 9,2 22,2 0,0
17-10-2020 10,6     14,7     20,3 9,7 28 47 70 1.014 1.015 1.018 NW 9,0 20,4 0,0
16-10-2020 10,6     14,2     18,0 7,4 36 51 75 1.014 1.015 1.017 WNW 7,5 18,5 0,0
15-10-2020 12,6     15,7     20,3 7,7 23 38 53 1.012 1.013 1.015 W 8,8 37,0 0,0
14-10-2020 12,2     17,1     19,8 7,6 44 59 83 1.007 1.009 1.013 NW 7,3 18,5 0,0
13-10-2020 10,8     17,6     24,0 13,2 34 47 70 1.010 1.014 1.018 NW 7,0 24,1 0,0
12-10-2020 11,3     15,1     19,3 8,0 35 47 69 1.018 1.019 1.022 W 8,0 25,9 0,0
11-10-2020 13,9     17,3     20,4 6,5 47 65 88 1.018 1.019 1.022 W 6,3 22,2 0,0
10-10-2020 15,7     18,4     22,8 7,1 63 82 93 1.019 1.021 1.023 WNW 6,0 18,5 0,0
09-10-2020 15,8     19,1     23,5 7,7 66 78 93 1.020 1.021 1.023 WNW 7,0 18,5 0,0
08-10-2020 16,9     20,0     23,8 6,9 62 81 95 1.022 1.023 1.024 WNW 8,2 22,2 0,0
06-10-2020 13,5     18,6     24,8 11,3 32 41 61 1.018 1.019 1.021 SSO 7,3 21,6 0,0
05-10-2020 14,0     18,0     21,8 7,8 31 46 62 1.010 1.014 1.019 WNW 9,2 29,6 0,0
04-10-2020 13,0     17,6     22,1 9,1 33 44 53 1.006 1.009 1.011 W 8,9 35,1 0,0
03-10-2020 11,6     15,6     20,8 9,2 23 42 55 1.001 1.005 1.010 W 12,3 74,0 0,0
02-10-2020 12,1     19,8     25,1 13,0 34 46 76 993 999 1.006 WNW 11,9 64,8 2,1
01-10-2020 18,1     23,2     29,1 11,0 29 42 61 1.006 1.009 1.013 WNW 6,8 24,1 0,0
30-09-2020 15,3     18,9     23,2 7,9 47 67 87 1.013 1.015 1.018 SO 6,6 17,9 0,0
29-09-2020 14,3     18,5     23,6 9,3 47 69 84 1.016 1.017 1.018 NW 8,4 22,2 0,0
28-09-2020 13,6     17,9     22,8 9,2 42 58 76 1.012 1.015 1.017 WNW 8,1 22,2 0,0
27-09-2020 14,4     19,6     24,0 9,6 21 45 70 1.007 1.011 1.014 WNW 11,3 50,0 0,0
26-09-2020 14,7     18,4     21,6 6,9 25 35 46 1.010 1.015 1.018 WSW 8,9 44,4 0,0
25-09-2020 18,0     21,4     24,4 6,4 18 38 59 1.012 1.015 1.019 WSW 10,0 53,6 0,0
24-09-2020 22,0     25,1     28,7 6,7 33 45 56 1.012 1.014 1.015 W 8,5 33,3 0,0
23-09-2020 21,1     24,0     27,4 6,3 36 51 85 1.011 1.013 1.014 NW 5,6 18,5 0,0
22-09-2020 19,3     22,1     25,7 6,4 39 56 74 1.013 1.014 1.016 NW 8,9 20,4 0,0
21-09-2020 19,4     23,0     27,0 7,6 38 52 69 1.014 1.016 1.018 W 7,0 20,4 0,0
20-09-2020 19,4     22,9     26,4 7,0 37 54 75 1.015 1.016 1.018 W 8,3 31,4 0,0
19-09-2020 18,9     22,6     28,0 9,1 34 62 86 1.014 1.016 1.018 WNW 8,8 22,2 0,0
Últims 13 mesos disponibles
09/2020 13,6 18,0 22,0 21,6 21,6 25,8 29,3 15,7 35 59 74 1.011 1.017 1.023 NW 8,3 53,6 3,2
08/2020 15,6 21,8 24,7 25,7 23,1 30,0 34,1 18,5 32 55 89 1.004 1.014 1.019 W 7,2 46,3 9,9
07/2020 18,4 21,3 25,8 25,4 24,8 30,1 36,0 17,6 26 54 89 1.012 1.016 1.021 W 7,4 29,6 5,8
06/2020 12,9 17,8 22,1 21,7 20,0 25,8 32,3 19,4 35 57 84 1.005 1.014 1.021 WNW 7,8 55,5 28,7
05/2020 11,2 16,1 19,7 19,9 17,7 24,4 29,3 18,1 32 53 86 1.005 1.016 1.025 WNW 8,3 40,7 26,7
04/2020 7,5 9,7 13,1 13,1 13,8 16,8 19,1 11,6 30 70 98 1.008 1.017 1.023 3,3 31,4 66,4
03/2020 6,0 10,4 15,8 13,7 11,1 17,4 24,4 18,4 38 69 95 1.006 1.014 1.022 W 7,6 70,3 48,6
02/2020 5,7 10,6 15,3 14,4 12,7 18,7 25,7 20,0 17 67 97 1.013 1.023 1.030 NW 7,8 53,6 1,5
01/2020 4,2 7,5 13,1 10,6 12,4 14,5 20,8 16,6 44 73 92 1.012 1.022 1.029 NW 8,9 55,5 223,2
12/2019 6,1 10,2 14,9 13,0 11,9 16,5 22,8 16,7 29 69 92 1.004 1.017 1.029 NW 8,9 70,3 96,7
11/2019 4,5 10,8 18,6 13,6 12,3 17,2 24,7 20,2 42 62 92 998 1.009 1.017 WNW 10,1 72,2 25,8
10/2019 9,7 15,4 19,5 18,7 15,2 22,8 28,5 18,8 42 72 91 1.007 1.016 1.021 NW 7,6 77,7 67,1
09/2019 13,9 18,7 21,6 22,2 21,1 26,0 30,5 16,6 45 80 93 1.010 1.017 1.021 NW 7,2 50,0 142,7
Tots els anys disponibles
2019 1,9 13,6 26,3 17,2 9,7 21,6 36,6 34,7 11 62 94 995 1.015 1.029 NW 7,9 77,7 612,1
2018 1,5 13,4 25,6 17,0 6,9 21,3 33,7 32,2 26 70 93 998 1.017 1.028 NW 6,9 70,3 555,7
2017 0,2 13,4 26,9 17,2 5,7 21,7 37,0 36,8 32 50 68 1.010 1.015 1.021 7,3 64,8 559,8
2016 2,7 13,8 26,9 17,3 8,3 21,5 37,1 34,4 7,0 66,6 475,5
Temperatura (°C)
Humitat relativa (%)
Velocitat del vent i ràfega màxima (km/h)
Direcció del vent (°)
Pressió (hPa)
Precipitació (mm)
Nota sobre les dades: s'avisa a l'usuari de la provisionalitat i no oficialitat d'aquestes dades
Logo AVAMET blanc
Web allotjada a Sollutia
Llicència de Creative CommonsLa web d'AVAMET i els seus continguts estan subjectes a una llicència de
Reconeixement - No Comercial - Compartir igual
Últimes estacions: Alfondeguilla (Soci), Santa Magdalena de Polpís (Soci),  Benafigos (Ajuntament Soci), Carlet - Ajuntament (Inforatge), Montroi (Inforatge), Bronchales (Limítrofe-Terol/Aj. Soci), Sueca - Muntanyeta dels Sants (Inforatge), Vilamarxant - Ajuntament (Aj. Soci/Inforatge), Monteagudo del Castillo - El Portero (Limítrofe-Terol/Soci), Calzadilla de los Barros (Limítrofe-Badajoz/Soci) - - -